Time;durP1;ratioP1;P1;durP2;ratioP2;P2;SDS_P1;SDS_P2;PMS_P1;PMS_P2;Temp;Humidity;BMP_temperature;BMP_pressure;BME280_temperature;BME280_humidity;BME280_pressure;Samples;Min_cycle;Max_cycle;Signal;HPM_P1;HPM_P2
2023/09/04 00:02:42;;;;;;;15.07;14.37;;;19.10;99.90;;;;;;5055467;28;20965;-85
2023/09/04 00:05:27;;;;;;;14.00;13.60;;;19.10;99.90;;;;;;5048475;28;20470;-84
2023/09/04 00:11:31;;;;;;;14.00;13.57;;;19.00;99.90;;;;;;5045674;28;20472;-84
2023/09/04 00:18:13;;;;;;;14.77;14.17;;;19.10;99.90;;;;;;5053994;28;20975;-84
2023/09/04 00:24:41;;;;;;;14.10;13.60;;;19.00;99.90;;;;;;5038778;28;20478;-85
2023/09/04 00:30:50;;;;;;;13.80;13.30;;;19.00;99.90;;;;;;5052532;28;21031;-84
2023/09/04 00:33:51;;;;;;;14.90;14.20;;;18.90;99.90;;;;;;5067644;28;20467;-83
2023/09/04 00:37:12;;;;;;;14.33;13.53;;;18.90;1.00;;;;;;4988187;28;20559;-85
2023/09/04 00:43:35;;;;;;;14.23;13.73;;;18.80;1.00;;;;;;4988447;28;20951;-84
2023/09/04 00:50:13;;;;;;;14.27;13.83;;;18.70;1.00;;;;;;4999807;28;20553;-85
2023/09/04 00:53:22;;;;;;;14.90;14.40;;;18.60;1.00;;;;;;4997629;28;20485;-82
2023/09/04 01:03:25;;;;;;;14.40;13.80;;;18.50;1.00;;;;;;5065623;28;20474;-85
2023/09/04 01:06:20;;;;;;;14.20;13.80;;;18.50;1.00;;;;;;5058055;28;20487;-86
2023/09/04 01:09:08;;;;;;;14.33;13.90;;;18.60;1.00;;;;;;5063030;28;20455;-84
2023/09/04 01:12:03;;;;;;;14.40;13.90;;;18.50;1.00;;;;;;5066912;28;20460;-85
2023/09/04 01:15:02;;;;;;;14.67;14.17;;;18.40;1.00;;;;;;5062754;28;20502;-83
2023/09/04 01:18:05;;;;;;;14.60;14.10;;;18.40;1.00;;;;;;5051956;28;20472;-83
2023/09/04 01:21:30;;;;;;;14.60;14.10;;;18.40;1.00;;;;;;5050722;28;20447;-83
2023/09/04 01:24:16;;;;;;;14.63;13.93;;;18.40;1.00;;;;;;5053347;28;20496;-83
2023/09/04 01:27:41;;;;;;;14.87;14.37;;;18.40;1.00;;;;;;5051732;28;20458;-84
2023/09/04 01:37:18;;;;;;;14.43;13.80;;;18.20;6.40;;;;;;5044462;28;20483;-84
2023/09/04 01:40:28;;;;;;;14.50;14.00;;;18.20;34.30;;;;;;5043906;28;20963;-84
2023/09/04 01:46:43;;;;;;;13.87;13.30;;;18.30;1.00;;;;;;5051071;28;20436;-85
2023/09/04 01:50:03;;;;;;;14.33;13.93;;;18.30;1.00;;;;;;5050474;28;20467;-84
2023/09/04 01:57:01;;;;;;;13.97;13.47;;;18.10;87.40;;;;;;5042168;28;20496;-84
2023/09/04 02:04:03;;;;;;;14.33;13.77;;;18.00;99.90;;;;;;5027992;28;20493;-83
2023/09/04 02:07:03;;;;;;;14.63;14.23;;;18.00;45.80;;;;;;5044227;28;20460;-84
2023/09/04 02:09:56;;;;;;;15.07;14.47;;;18.10;48.10;;;;;;5052540;28;21020;-83
2023/09/04 02:13:12;;;;;;;14.67;14.00;;;18.10;99.90;;;;;;5051359;28;20482;-85
2023/09/04 02:16:24;;;;;;;15.17;14.43;;;18.00;28.50;;;;;;5053058;28;20443;-85
2023/09/04 02:19:35;;;;;;;;;;;;;;;;;;;;;
2023/09/04 02:22:42;;;;;;;14.50;13.97;;;18.00;1.00;;;;;;5053010;28;20510;-84
2023/09/04 02:26:12;;;;;;;14.07;13.63;;;17.90;1.00;;;;;;5045452;28;20513;-86
2023/09/04 02:29:40;;;;;;;14.67;14.07;;;17.90;1.00;;;;;;5051521;28;20492;-83
2023/09/04 02:33:05;;;;;;;14.80;14.20;;;17.90;55.40;;;;;;5043199;28;20460;-83
2023/09/04 02:36:18;;;;;;;14.83;14.33;;;17.80;13.30;;;;;;5050423;28;20447;-84
2023/09/04 02:39:21;;;;;;;14.40;13.90;;;17.80;1.00;;;;;;5049861;28;20586;-83
2023/09/04 02:42:33;;;;;;;14.60;14.00;;;17.80;40.20;;;;;;5050606;28;20464;-84
2023/09/04 02:49:22;;;;;;;14.93;14.33;;;17.80;99.90;;;;;;5046278;28;20535;-85
2023/09/04 02:55:33;;;;;;;14.40;14.00;;;17.70;99.90;;;;;;5052110;28;21114;-85
2023/09/04 03:02:12;;;;;;;14.20;13.77;;;17.70;95.30;;;;;;5007907;28;20557;-83
2023/09/04 03:05:35;;;;;;;14.30;13.80;;;17.70;58.20;;;;;;5049259;28;20514;-82
2023/09/04 03:08:38;;;;;;;14.57;14.07;;;17.70;99.90;;;;;;5051575;28;20470;-85
2023/09/04 03:11:27;;;;;;;14.27;13.87;;;17.70;99.90;;;;;;5048495;28;20464;-83
2023/09/04 03:14:11;;;;;;;14.37;13.87;;;17.70;99.90;;;;;;5048394;28;20472;-84
2023/09/04 03:17:23;;;;;;;14.70;14.20;;;17.70;99.90;;;;;;5044455;28;20482;-84
2023/09/04 03:20:50;;;;;;;15.10;14.50;;;17.60;99.90;;;;;;5041491;28;20458;-83
2023/09/04 03:24:09;;;;;;;14.30;13.80;;;17.60;99.90;;;;;;5047776;28;20512;-84
2023/09/04 03:27:29;;;;;;;14.43;13.73;;;17.60;99.90;;;;;;5051798;28;20958;-86
2023/09/04 03:36:51;;;;;;;14.80;14.30;;;17.50;99.90;;;;;;5042191;28;20952;-85
2023/09/04 03:39:52;;;;;;;15.00;14.50;;;17.50;99.90;;;;;;5046005;28;21253;-84
2023/09/04 03:42:47;;;;;;;14.60;14.10;;;17.50;99.90;;;;;;4983590;28;20482;-84
2023/09/04 03:56:37;;;;;;;22.03;20.07;;;17.30;99.90;;;;;;5046621;28;20546;-85
2023/09/04 03:59:44;;;;;;;19.53;18.07;;;17.30;99.90;;;;;;5046458;28;20479;-83
2023/09/04 04:03:16;;;;;;;;;;;;;;;;;;;;;
2023/09/04 04:12:33;;;;;;;15.47;14.70;;;17.30;99.90;;;;;;5048511;28;20467;-83
2023/09/04 04:15:34;;;;;;;15.37;14.87;;;17.30;77.90;;;;;;5053432;28;20463;-84
2023/09/04 04:18:35;;;;;;;16.50;15.53;;;17.20;1.00;;;;;;5051516;28;20487;-84
2023/09/04 04:22:33;;;;;;;16.30;15.60;;;17.30;1.00;;;;;;5052024;28;20467;-84
2023/09/04 04:25:40;;;;;;;16.00;15.40;;;17.10;1.00;;;;;;5052912;28;21032;-84
2023/09/04 04:28:35;;;;;;;16.40;15.80;;;17.10;34.80;;;;;;5046768;28;20448;-86
2023/09/04 04:31:37;;;;;;;16.40;15.60;;;17.10;99.90;;;;;;5044036;28;20535;-84
2023/09/04 04:37:57;;;;;;;17.23;16.17;;;17.10;99.90;;;;;;5056001;28;20479;-84
2023/09/04 04:44:53;;;;;;;16.07;15.20;;;17.10;99.90;;;;;;5049244;28;20487;-85
2023/09/04 04:51:57;;;;;;;15.60;15.10;;;17.10;99.90;;;;;;4990037;28;20471;-84
2023/09/04 04:55:23;;;;;;;16.00;15.40;;;17.10;99.90;;;;;;4987183;28;21274;-85
2023/09/04 05:06:20;;;;;;;15.00;14.60;;;17.00;99.90;;;;;;4929591;29;20465;-84
2023/09/04 05:15:25;;;;;;;16.33;15.63;;;17.00;99.90;;;;;;4923696;28;20482;-85
2023/09/04 05:21:56;;;;;;;16.40;15.57;;;17.00;99.90;;;;;;4972409;28;20459;-84
2023/09/04 05:25:11;;;;;;;16.03;15.00;;;17.00;99.90;;;;;;4990948;28;20483;-85
2023/09/04 05:28:12;;;;;;;15.40;14.90;;;17.00;99.90;;;;;;5038690;28;20616;-87
2023/09/04 05:31:28;;;;;;;15.73;15.23;;;17.00;99.90;;;;;;5061870;28;20565;-88
2023/09/04 05:37:47;;;;;;;15.37;14.87;;;17.00;99.90;;;;;;5056305;28;20519;-85
2023/09/04 05:40:52;;;;;;;15.70;15.20;;;17.00;99.90;;;;;;5057301;28;20479;-85
2023/09/04 05:44:00;;;;;;;16.20;15.50;;;17.00;99.90;;;;;;5060902;28;20535;-84
2023/09/04 05:47:00;;;;;;;16.07;15.37;;;17.10;99.90;;;;;;5049763;28;21113;-82
2023/09/04 05:50:12;;;;;;;16.60;15.97;;;17.10;99.90;;;;;;5052975;28;20547;-82
2023/09/04 05:53:31;;;;;;;16.90;16.20;;;17.10;99.90;;;;;;5054902;28;20460;-82
2023/09/04 05:56:39;;;;;;;16.97;16.17;;;17.10;1.00;;;;;;5048933;28;20492;-82
2023/09/04 05:59:50;;;;;;;;;;;;;;;;;;;;;
2023/09/04 06:02:32;;;;;;;16.23;15.47;;;17.40;99.90;;;;;;5050412;28;20472;-83
2023/09/04 06:10:02;;;;;;;;;;;;;;;;;;;;;
2023/09/04 06:18:41;;;;;;;18.10;17.40;;;18.80;1.00;;;;;;5051854;28;20502;-84
2023/09/04 06:22:02;;;;;;;17.17;16.57;;;18.90;99.90;;;;;;5050359;28;20965;-83
2023/09/04 06:25:06;;;;;;;17.97;17.27;;;18.90;99.90;;;;;;5051249;28;20899;-83
2023/09/04 06:28:11;;;;;;;17.33;16.63;;;19.00;99.90;;;;;;5052983;28;20462;-84
2023/09/04 06:31:07;;;;;;;18.27;17.33;;;18.90;99.90;;;;;;5048046;28;20455;-83
2023/09/04 06:34:22;;;;;;;18.07;17.33;;;19.00;99.90;;;;;;5051898;28;21596;-82
2023/09/04 06:37:42;;;;;;;17.83;17.00;;;18.90;99.90;;;;;;5051910;28;20451;-83
2023/09/04 06:40:46;;;;;;;17.87;17.17;;;19.00;99.90;;;;;;5029715;28;20456;-82
2023/09/04 06:43:36;;;;;;;18.00;17.30;;;19.00;99.90;;;;;;5050598;28;20448;-82
2023/09/04 06:49:27;;;;;;;18.40;17.60;;;19.10;99.90;;;;;;5049816;28;20455;-82
2023/09/04 06:52:36;;;;;;;18.40;17.60;;;19.20;99.90;;;;;;5048477;28;20467;-81
2023/09/04 06:55:37;;;;;;;17.77;17.07;;;19.20;99.90;;;;;;5049807;28;20517;-82
2023/09/04 06:59:09;;;;;;;18.00;17.20;;;19.20;99.90;;;;;;5048620;28;20610;-83
2023/09/04 07:02:46;;;;;;;17.57;16.87;;;19.20;99.90;;;;;;5050238;28;20965;-84
2023/09/04 07:05:46;;;;;;;17.93;17.20;;;19.30;99.90;;;;;;5027504;28;20559;-83
2023/09/04 07:12:16;;;;;;;18.10;17.40;;;19.20;88.00;;;;;;5051289;28;21253;-85
2023/09/04 07:15:13;;;;;;;18.10;17.40;;;19.20;60.50;;;;;;5043262;28;20495;-83
2023/09/04 07:18:35;;;;;;;17.90;17.20;;;19.30;25.70;;;;;;5053786;28;20448;-84
2023/09/04 07:24:45;;;;;;;17.70;17.00;;;19.40;1.00;;;;;;5051376;28;20470;-83
2023/09/04 07:27:36;;;;;;;18.37;17.67;;;19.50;1.00;;;;;;5047952;28;20460;-84
2023/09/04 07:30:38;;;;;;;18.87;17.87;;;19.50;1.00;;;;;;5051188;28;20472;-84
2023/09/04 07:34:12;;;;;;;17.77;17.03;;;19.50;1.00;;;;;;5051618;28;20501;-84
2023/09/04 07:37:11;;;;;;;17.53;16.93;;;19.60;1.00;;;;;;5049085;28;20443;-84
2023/09/04 07:39:52;;;;;;;19.67;18.87;;;19.70;1.00;;;;;;5054851;28;20472;-83
2023/09/04 07:49:50;;;;;;;18.13;17.27;;;20.00;1.00;;;;;;5051276;28;20471;-83
2023/09/04 07:55:51;;;;;;;17.70;17.10;;;20.20;1.00;;;;;;5052076;28;21510;-84
2023/09/04 07:58:40;;;;;;;17.63;17.03;;;20.30;1.00;;;;;;5052232;28;20471;-83
2023/09/04 08:02:22;;;;;;;18.17;17.40;;;20.40;1.00;;;;;;5038525;28;20459;-83
2023/09/04 08:05:14;;;;;;;18.05;17.25;;;20.50;1.00;;;;;;5059307;22;20925;-84
2023/09/04 08:08:09;;;;;;;18.50;17.70;;;20.60;1.00;;;;;;5047312;28;20196;-83
2023/09/04 08:11:08;;;;;;;17.87;17.27;;;20.70;1.00;;;;;;5071582;28;20435;-84
2023/09/04 08:14:18;;;;;;;17.57;16.97;;;20.80;1.00;;;;;;5071163;28;20825;-84
2023/09/04 08:17:34;;;;;;;18.47;17.77;;;20.90;1.00;;;;;;5054742;28;20473;-84
2023/09/04 08:23:58;;;;;;;17.20;16.60;;;20.90;1.00;;;;;;5059221;28;20491;-84
2023/09/04 08:26:52;;;;;;;17.90;17.20;;;21.00;1.00;;;;;;5072332;28;20443;-83
2023/09/04 08:33:13;;;;;;;18.50;17.50;;;21.20;1.00;;;;;;5071641;28;20456;-85
2023/09/04 08:36:05;;;;;;;17.17;16.50;;;21.20;1.00;;;;;;5073140;28;20435;-85
2023/09/04 08:39:02;;;;;;;18.47;17.50;;;21.30;1.00;;;;;;5047425;28;20455;-83
2023/09/04 08:45:35;;;;;;;17.40;16.70;;;21.50;99.90;;;;;;5062299;28;20476;-84
2023/09/04 08:52:15;;;;;;;17.03;16.43;;;21.60;99.90;;;;;;5067030;28;20483;-83
2023/09/04 08:58:39;;;;;;;17.27;16.67;;;21.70;99.90;;;;;;5073165;28;20810;-84
2023/09/04 09:01:39;;;;;;;17.73;16.93;;;21.80;99.90;;;;;;5052652;28;22075;-84
2023/09/04 09:04:39;;;;;;;17.60;17.00;;;21.90;99.90;;;;;;5072581;28;21188;-84
2023/09/04 09:08:00;;;;;;;16.73;16.20;;;22.00;99.90;;;;;;5073868;28;20449;-83
2023/09/04 09:10:46;;;;;;;18.30;17.60;;;22.10;99.90;;;;;;5048020;28;21104;-84
2023/09/04 09:13:45;;;;;;;18.30;17.53;;;22.10;99.90;;;;;;5074803;28;20529;-84
2023/09/04 09:16:46;;;;;;;17.97;17.20;;;22.20;99.90;;;;;;5072468;28;20440;-85
2023/09/04 09:23:29;;;;;;;17.47;16.87;;;22.40;99.90;;;;;;5071730;28;20450;-85
2023/09/04 09:26:23;;;;;;;18.20;17.40;;;22.50;99.90;;;;;;5080969;28;20457;-84
2023/09/04 09:29:14;;;;;;;18.10;17.33;;;22.50;99.90;;;;;;5076011;28;20448;-84
2023/09/04 09:32:39;;;;;;;17.90;17.17;;;22.60;99.90;;;;;;5080760;28;20803;-87
2023/09/04 09:36:01;;;;;;;16.90;16.20;;;22.60;99.90;;;;;;5076183;28;20443;-84
2023/09/04 09:45:57;;;;;;;17.20;16.50;;;22.80;99.90;;;;;;5051179;28;21139;-85
2023/09/04 09:48:49;;;;;;;17.47;16.77;;;22.80;99.90;;;;;;5085616;28;20458;-86
2023/09/04 09:52:03;;;;;;;17.40;16.70;;;22.80;99.90;;;;;;5082562;28;20459;-86
2023/09/04 09:55:06;;;;;;;17.73;17.13;;;22.90;99.90;;;;;;5058275;28;20511;-85
2023/09/04 09:58:08;;;;;;;16.70;16.20;;;23.10;99.90;;;;;;5062746;28;20465;-85
2023/09/04 10:04:17;;;;;;;18.07;17.27;;;23.10;99.90;;;;;;5067534;28;20496;-85
2023/09/04 10:07:29;;;;;;;17.13;16.60;;;23.20;99.90;;;;;;5078037;28;20509;-85
2023/09/04 10:10:31;;;;;;;18.30;17.60;;;23.20;99.90;;;;;;5084824;28;20457;-86
2023/09/04 10:13:35;;;;;;;17.07;16.47;;;23.20;99.90;;;;;;5080767;28;20463;-84
2023/09/04 10:17:00;;;;;;;17.33;16.73;;;23.30;99.90;;;;;;5071075;28;20462;-84
2023/09/04 10:20:36;;;;;;;17.67;17.00;;;23.40;99.90;;;;;;5068576;28;20454;-85
2023/09/04 10:23:37;;;;;;;17.13;16.43;;;23.60;99.90;;;;;;5070053;28;20483;-85
2023/09/04 10:26:27;;;;;;;17.20;16.50;;;23.60;99.90;;;;;;5069478;28;20475;-84
2023/09/04 10:29:51;;;;;;;16.93;16.17;;;23.60;99.90;;;;;;5050173;28;20463;-83
2023/09/04 10:32:51;;;;;;;16.90;16.40;;;23.60;99.90;;;;;;5069474;28;21029;-86
2023/09/04 10:35:58;;;;;;;16.93;16.23;;;23.70;99.90;;;;;;5068887;28;20569;-85
2023/09/04 10:46:16;;;;;;;16.70;16.10;;;23.60;99.90;;;;;;5070830;28;20495;-85
2023/09/04 10:49:59;;;;;;;17.07;16.57;;;23.80;99.90;;;;;;5071977;28;20449;-84
2023/09/04 10:53:04;;;;;;;16.90;16.30;;;23.80;99.90;;;;;;5073072;28;20443;-84
2023/09/04 10:56:22;;;;;;;16.90;16.20;;;23.90;99.90;;;;;;5054538;28;20463;-86
2023/09/04 10:59:38;;;;;;;17.33;16.73;;;24.00;99.90;;;;;;5064619;28;20481;-85
2023/09/04 11:02:59;;;;;;;17.07;16.47;;;23.90;99.90;;;;;;5071248;28;20493;-84
2023/09/04 11:06:43;;;;;;;17.93;17.23;;;23.90;99.90;;;;;;4987513;28;20555;-83
2023/09/04 11:09:51;;;;;;;17.17;16.47;;;23.90;99.90;;;;;;4983303;28;20452;-84
2023/09/04 11:12:46;;;;;;;17.27;16.67;;;23.90;99.90;;;;;;4982683;28;20464;-84
2023/09/04 11:19:15;;;;;;;17.90;17.20;;;24.00;99.90;;;;;;4970574;28;20467;-84
2023/09/04 11:26:05;;;;;;;17.13;16.53;;;24.20;99.90;;;;;;4991591;28;20426;-85
2023/09/04 11:32:54;;;;;;;16.60;16.10;;;24.20;99.90;;;;;;4989405;28;20447;-84
2023/09/04 11:36:37;;;;;;;17.20;16.60;;;24.20;99.90;;;;;;4985261;28;20459;-85
2023/09/04 11:43:13;;;;;;;16.50;16.00;;;24.20;99.90;;;;;;4972408;28;20489;-84
2023/09/04 11:46:30;;;;;;;16.97;16.37;;;24.20;99.90;;;;;;4980117;28;20467;-84
2023/09/04 11:52:39;;;;;;;16.80;16.23;;;24.30;99.90;;;;;;4918701;29;20469;-85
2023/09/04 11:55:43;;;;;;;17.17;16.57;;;24.30;99.90;;;;;;4919350;29;20491;-84
2023/09/04 11:58:36;;;;;;;16.60;16.00;;;24.40;99.90;;;;;;4920806;29;20462;-84
2023/09/04 12:01:35;;;;;;;16.57;16.07;;;24.60;99.90;;;;;;4949178;28;20486;-85
2023/09/04 12:04:57;;;;;;;;;;;;;;;;;;;;;
2023/09/04 12:10:57;;;;;;;16.57;15.97;;;24.50;99.90;;;;;;4985575;28;20450;-85
2023/09/04 12:14:13;;;;;;;15.70;15.30;;;24.60;99.90;;;;;;4983900;28;20510;-84
2023/09/04 12:20:48;;;;;;;16.30;15.60;;;24.70;99.90;;;;;;4990568;28;20546;-86
2023/09/04 12:24:29;;;;;;;;;;;;;;;;;;;;;
2023/09/04 12:27:46;;;;;;;16.10;15.30;;;24.70;99.90;;;;;;4968471;28;20454;-84
2023/09/04 12:31:04;;;;;;;16.23;15.73;;;24.80;99.90;;;;;;4988373;28;20508;-84
2023/09/04 12:40:40;;;;;;;15.93;15.23;;;24.90;99.90;;;;;;4979269;28;20545;-82
2023/09/04 12:43:47;;;;;;;15.20;14.70;;;24.80;99.90;;;;;;4977545;28;20500;-81
2023/09/04 12:49:42;;;;;;;14.20;13.77;;;24.90;99.90;;;;;;4981315;28;20521;-81
2023/09/04 12:52:33;;;;;;;14.93;14.43;;;25.00;99.90;;;;;;4980443;28;20446;-82
2023/09/04 12:55:25;;;;;;;15.57;14.87;;;24.90;99.90;;;;;;4979418;28;20996;-82
2023/09/04 12:58:35;;;;;;;15.30;14.80;;;24.90;99.90;;;;;;4981664;28;20450;-81
2023/09/04 13:01:35;;;;;;;15.07;14.30;;;24.90;99.90;;;;;;4983228;28;20643;-82
2023/09/04 13:04:44;;;;;;;15.40;14.90;;;25.00;99.90;;;;;;4986492;28;20908;-82
2023/09/04 13:10:43;;;;;;;14.93;14.53;;;24.90;99.90;;;;;;4981025;28;20467;-82
2023/09/04 13:13:22;;;;;;;14.97;14.47;;;25.00;99.90;;;;;;4983261;28;21375;-83
2023/09/04 13:16:04;;;;;;;14.50;14.00;;;25.00;99.90;;;;;;4965516;28;20568;-80
2023/09/04 13:19:15;;;;;;;14.30;13.70;;;25.10;99.90;;;;;;4983003;28;20473;-79
2023/09/04 13:22:09;;;;;;;14.50;14.00;;;25.20;99.90;;;;;;4982143;28;20580;-81
2023/09/04 13:25:11;;;;;;;15.47;14.50;;;25.10;99.90;;;;;;4966281;28;20496;-81
2023/09/04 13:28:10;;;;;;;14.40;14.00;;;25.20;99.90;;;;;;4985933;28;20455;-80
2023/09/04 13:31:36;;;;;;;14.90;14.23;;;25.10;99.90;;;;;;4980157;28;20478;-81
2023/09/04 13:34:48;;;;;;;14.03;13.53;;;25.00;99.90;;;;;;4979154;28;20493;-82
2023/09/04 13:37:41;;;;;;;16.07;13.87;;;25.00;99.90;;;;;;4986388;28;20550;-82
2023/09/04 13:40:31;;;;;;;13.20;12.80;;;25.00;99.90;;;;;;4987834;28;20459;-82
2023/09/04 13:43:12;;;;;;;12.87;12.37;;;25.10;99.90;;;;;;4983214;28;20485;-80
2023/09/04 13:52:03;;;;;;;12.43;12.03;;;25.40;99.90;;;;;;4989124;28;20500;-81
2023/09/04 13:54:55;;;;;;;13.20;12.80;;;25.40;99.90;;;;;;4987301;28;20486;-80
2023/09/04 13:57:44;;;;;;;12.87;12.40;;;25.30;99.90;;;;;;4989930;28;20813;-82
2023/09/04 14:00:55;;;;;;;12.50;12.10;;;25.40;99.90;;;;;;4989153;28;20444;-81
2023/09/04 14:07:14;;;;;;;13.30;12.70;;;25.40;99.90;;;;;;4995114;28;20870;-81
2023/09/04 14:13:17;;;;;;;12.13;11.83;;;25.40;99.90;;;;;;4982834;28;20450;-82
2023/09/04 14:16:01;;;;;;;13.00;12.50;;;25.40;99.90;;;;;;4977491;28;20478;-83
2023/09/04 14:19:15;;;;;;;12.60;12.20;;;25.30;99.90;;;;;;5000528;28;20530;-82
2023/09/04 14:25:27;;;;;;;11.60;11.20;;;25.30;99.90;;;;;;4968358;28;20491;-81
2023/09/04 14:28:10;;;;;;;12.00;11.60;;;25.40;99.90;;;;;;4993455;28;20481;-83
2023/09/04 14:31:08;;;;;;;12.30;11.70;;;25.40;99.90;;;;;;4984514;28;20455;-83
2023/09/04 14:34:08;;;;;;;13.07;12.57;;;25.40;99.90;;;;;;4969974;28;20477;-83
2023/09/04 14:37:16;;;;;;;13.13;12.47;;;25.40;99.90;;;;;;4969532;28;20530;-84
2023/09/04 14:40:06;;;;;;;12.40;11.90;;;25.40;99.90;;;;;;4969214;28;20989;-82
2023/09/04 14:43:11;;;;;;;;;;;;;;;;;;;;;
2023/09/04 14:46:11;;;;;;;11.80;11.50;;;25.30;99.90;;;;;;4974703;28;20506;-82
2023/09/04 14:49:25;;;;;;;12.40;12.00;;;25.30;99.90;;;;;;4983936;28;20467;-82
2023/09/04 14:52:24;;;;;;;12.47;12.07;;;25.30;99.90;;;;;;4966373;28;20463;-83
2023/09/04 14:55:56;;;;;;;13.20;12.80;;;25.30;99.90;;;;;;4971302;28;20475;-83
2023/09/04 14:58:58;;;;;;;12.27;11.90;;;25.30;99.90;;;;;;4983623;28;20553;-81
2023/09/04 15:02:09;;;;;;;12.87;12.40;;;25.20;99.90;;;;;;4987171;28;20476;-83
2023/09/04 15:05:20;;;;;;;13.17;12.67;;;25.30;99.90;;;;;;4983046;28;20497;-83
2023/09/04 15:08:47;;;;;;;;;;;;;;;;;;;;;
2023/09/04 15:11:35;;;;;;;13.87;13.37;;;25.20;99.90;;;;;;4895941;28;21299;-83
2023/09/04 15:14:33;;;;;;;13.93;13.33;;;25.30;99.90;;;;;;4980210;28;20530;-82
2023/09/04 15:17:44;;;;;;;13.67;13.20;;;25.20;99.90;;;;;;4983606;28;20479;-82
2023/09/04 15:21:08;;;;;;;14.10;13.70;;;25.20;99.90;;;;;;4982967;28;20534;-81
2023/09/04 15:24:15;;;;;;;14.47;13.60;;;25.10;99.90;;;;;;4972175;28;20954;-82
2023/09/04 15:27:16;;;;;;;13.20;12.57;;;25.20;99.90;;;;;;4966102;28;20465;-81
2023/09/04 15:30:31;;;;;;;13.03;12.53;;;25.20;99.90;;;;;;4981153;28;20537;-82
2023/09/04 15:33:31;;;;;;;14.20;13.60;;;25.20;99.90;;;;;;4963501;28;20444;-80
2023/09/04 15:36:24;;;;;;;13.00;12.60;;;25.30;99.90;;;;;;4983126;28;20462;-82
2023/09/04 15:39:09;;;;;;;12.40;12.00;;;25.30;99.90;;;;;;4981441;28;20501;-83
2023/09/04 15:42:15;;;;;;;13.30;12.83;;;25.20;99.90;;;;;;4979336;28;20468;-81
2023/09/04 15:45:05;;;;;;;13.53;12.93;;;25.30;99.90;;;;;;4983017;28;20470;-82
2023/09/04 15:51:40;;;;;;;13.20;12.80;;;25.30;99.90;;;;;;4980061;28;20550;-81
2023/09/04 15:58:38;;;;;;;13.13;12.73;;;25.20;99.90;;;;;;4925355;28;20461;-81
2023/09/04 16:05:03;;;;;;;13.70;13.30;;;25.20;99.90;;;;;;4963401;28;20597;-82
2023/09/04 16:08:12;;;;;;;14.20;13.70;;;25.20;99.90;;;;;;4963282;28;20467;-81
2023/09/04 16:11:29;;;;;;;13.97;13.40;;;25.20;99.90;;;;;;4981203;28;20460;-80
2023/09/04 16:14:24;;;;;;;13.93;13.53;;;25.20;99.90;;;;;;4963877;28;20474;-81
2023/09/04 16:17:27;;;;;;;14.40;13.20;;;25.20;99.90;;;;;;4963266;28;20457;-82
2023/09/04 16:20:21;;;;;;;14.90;14.30;;;25.20;99.90;;;;;;4981369;28;20952;-81
2023/09/04 16:23:12;;;;;;;13.80;13.40;;;25.20;99.90;;;;;;4960634;28;20525;-81
2023/09/04 16:26:06;;;;;;;14.70;14.20;;;25.20;99.90;;;;;;4983163;28;20765;-80
2023/09/04 16:28:51;;;;;;;13.27;12.77;;;25.20;99.90;;;;;;4980424;28;20455;-81
2023/09/04 16:32:03;;;;;;;13.23;12.83;;;25.20;99.90;;;;;;4982670;28;20482;-81
2023/09/04 16:35:12;;;;;;;13.77;13.37;;;25.20;99.90;;;;;;4986674;28;20474;-82
2023/09/04 16:38:16;;;;;;;13.67;13.17;;;25.20;99.90;;;;;;4987725;28;20455;-80
2023/09/04 16:41:51;;;;;;;14.33;13.87;;;25.20;99.90;;;;;;4978764;28;20466;-81
2023/09/04 16:44:43;;;;;;;14.10;13.60;;;25.10;99.90;;;;;;4985394;28;20599;-80
2023/09/04 16:47:49;;;;;;;13.97;13.47;;;25.10;99.90;;;;;;4986662;28;20655;-82
2023/09/04 16:53:55;;;;;;;14.30;13.80;;;25.00;99.90;;;;;;4985353;28;20481;-78
2023/09/04 16:56:49;;;;;;;14.30;13.70;;;25.00;99.90;;;;;;4984330;28;20564;-82
2023/09/04 16:59:50;;;;;;;13.70;13.30;;;25.00;99.90;;;;;;4985514;28;20446;-81
2023/09/04 17:03:45;;;;;;;14.30;13.70;;;25.00;99.90;;;;;;4981048;28;20451;-82
2023/09/04 17:06:36;;;;;;;14.47;13.97;;;24.90;99.90;;;;;;4983448;28;20470;-81
2023/09/04 17:09:26;;;;;;;13.20;12.80;;;24.90;99.90;;;;;;4982501;28;20465;-83
2023/09/04 17:19:23;;;;;;;13.73;13.33;;;24.80;99.90;;;;;;4969500;28;20490;-81
2023/09/04 17:35:16;;;;;;;14.10;13.60;;;24.60;99.90;;;;;;4984912;28;20490;-80
2023/09/04 17:38:33;;;;;;;13.50;13.07;;;24.50;99.90;;;;;;4982887;28;20513;-80
2023/09/04 17:44:39;;;;;;;13.03;12.63;;;24.40;99.90;;;;;;4985138;28;20512;-80
2023/09/04 17:51:30;;;;;;;13.33;12.83;;;24.30;99.90;;;;;;4957027;28;20980;-80
2023/09/04 17:54:24;;;;;;;13.70;13.20;;;24.30;99.90;;;;;;4953014;28;20504;-81
2023/09/04 17:57:22;;;;;;;13.70;13.17;;;24.20;99.90;;;;;;4981556;28;20468;-83
2023/09/04 18:03:22;;;;;;;14.37;13.30;;;24.10;99.90;;;;;;4966784;28;20467;-80
2023/09/04 18:06:19;;;;;;;13.80;13.30;;;24.10;99.90;;;;;;4983880;28;20498;-80
2023/09/04 18:09:19;;;;;;;13.80;13.20;;;24.00;99.90;;;;;;4965937;28;20473;-81
2023/09/04 18:12:47;;;;;;;14.87;14.17;;;24.00;99.90;;;;;;4982492;28;20466;-82
2023/09/04 18:19:12;;;;;;;13.80;13.40;;;23.80;99.90;;;;;;4975576;28;20462;-79
2023/09/04 18:25:40;;;;;;;13.43;13.03;;;23.80;99.90;;;;;;4975723;28;20471;-80
2023/09/04 18:28:49;;;;;;;;;;;;;;;;;;;;;
2023/09/04 18:31:49;;;;;;;14.03;13.53;;;23.70;99.90;;;;;;4969018;28;20497;-80
2023/09/04 18:34:40;;;;;;;14.47;13.63;;;23.60;99.90;;;;;;4989126;28;21026;-83
2023/09/04 18:38:00;;;;;;;13.50;13.00;;;23.60;99.90;;;;;;4992862;28;20479;-82
2023/09/04 18:41:16;;;;;;;14.37;13.87;;;23.50;99.90;;;;;;4990880;28;20461;-81
2023/09/04 18:44:13;;;;;;;13.73;13.23;;;23.50;99.90;;;;;;4986440;28;20542;-81
2023/09/04 18:46:51;;;;;;;14.00;13.50;;;23.40;99.90;;;;;;4996776;28;20870;-81
2023/09/04 18:49:54;;;;;;;14.37;13.87;;;23.40;99.90;;;;;;4993616;28;20465;-81
2023/09/04 18:52:45;;;;;;;13.60;13.10;;;23.40;99.90;;;;;;4976240;28;20473;-82
2023/09/04 18:55:33;;;;;;;13.93;13.53;;;23.30;99.90;;;;;;4980046;28;21378;-81
2023/09/04 18:58:56;;;;;;;;;;;;;;;;;;;;;
2023/09/04 19:15:24;;;;;;;14.60;14.10;;;22.90;99.90;;;;;;4990024;28;20468;-81
2023/09/04 19:22:19;;;;;;;13.93;13.43;;;22.90;99.90;;;;;;4988210;28;20525;-83
2023/09/04 19:25:15;;;;;;;14.00;13.50;;;22.80;99.90;;;;;;4987728;28;20565;-82
2023/09/04 19:28:27;;;;;;;14.77;14.17;;;22.80;99.90;;;;;;4984718;28;20458;-84
2023/09/04 19:35:59;;;;;;;15.20;14.60;;;22.80;99.90;;;;;;4969005;28;20461;-84
2023/09/04 19:46:31;;;;;;;14.03;13.47;;;22.70;99.90;;;;;;4970123;28;20491;-82
2023/09/04 19:50:03;;;;;;;13.60;13.10;;;22.60;99.90;;;;;;4953105;28;20491;-83
2023/09/04 19:59:16;;;;;;;14.00;13.40;;;22.50;99.90;;;;;;4947549;28;20555;-85
2023/09/04 20:02:19;;;;;;;13.73;13.23;;;22.50;99.90;;;;;;4955980;28;20468;-83
2023/09/04 20:05:20;;;;;;;13.77;13.27;;;22.50;99.90;;;;;;4938279;28;20990;-81
2023/09/04 20:11:50;;;;;;;13.83;13.23;;;22.40;99.90;;;;;;4953654;28;20913;-85
2023/09/04 20:32:00;;;;;;;14.50;14.00;;;22.20;99.90;;;;;;4891843;29;20471;-82
2023/09/04 20:45:45;;;;;;;14.43;13.83;;;22.10;99.90;;;;;;4942477;28;20488;-83
2023/09/04 20:52:29;;;;;;;14.93;14.23;;;22.10;99.90;;;;;;4952284;28;20439;-82
2023/09/04 20:55:29;;;;;;;14.87;14.17;;;22.00;99.90;;;;;;4938475;28;20498;-82
2023/09/04 20:59:00;;;;;;;14.03;13.53;;;22.00;99.90;;;;;;4939885;28;20958;-84
2023/09/04 23:22:46;;;;;;;15.10;14.20;;;20.30;99.90;;;;;;4946021;28;20508;-80
2023/09/04 23:29:41;;;;;;;14.20;13.70;;;20.20;99.90;;;;;;4947939;28;20480;-81
2023/09/04 23:36:15;;;;;;;14.23;13.63;;;20.20;99.90;;;;;;4923760;28;20902;-81
2023/09/04 23:45:49;;;;;;;14.07;13.57;;;20.00;99.90;;;;;;4948513;28;20540;-81
2023/09/04 23:52:41;;;;;;;13.33;12.83;;;20.00;99.90;;;;;;4917626;28;20840;-83
